sensor_id;sensor_type;location;lat;lon;timestamp;pressure;altitude;pressure_sealevel;temperature;humidity
28510;BME280;15723;55.684;37.928;2023-04-27T00:01:31;99346.00;;;10.54;72.61
28510;BME280;15723;55.684;37.928;2023-04-27T00:04:04;99347.09;;;10.51;73.04
28510;BME280;15723;55.684;37.928;2023-04-27T00:06:32;99353.50;;;10.50;72.67
28510;BME280;15723;55.684;37.928;2023-04-27T00:08:59;99352.38;;;10.65;72.23
28510;BME280;15723;55.684;37.928;2023-04-27T00:11:26;99351.75;;;10.37;72.94
28510;BME280;15723;55.684;37.928;2023-04-27T00:13:52;99349.16;;;10.35;73.18
28510;BME280;15723;55.684;37.928;2023-04-27T00:16:18;99352.34;;;10.42;72.94
28510;BME280;15723;55.684;37.928;2023-04-27T00:18:44;99360.56;;;10.40;73.07
28510;BME280;15723;55.684;37.928;2023-04-27T00:21:11;99357.63;;;10.30;73.50
28510;BME280;15723;55.684;37.928;2023-04-27T00:23:37;99357.63;;;10.18;74.81
28510;BME280;15723;55.684;37.928;2023-04-27T00:26:03;99350.72;;;10.26;75.13
28510;BME280;15723;55.684;37.928;2023-04-27T00:28:29;99354.47;;;10.37;74.40
28510;BME280;15723;55.684;37.928;2023-04-27T00:30:57;99358.50;;;10.31;74.35
28510;BME280;15723;55.684;37.928;2023-04-27T00:33:26;99361.75;;;10.11;74.94
28510;BME280;15723;55.684;37.928;2023-04-27T00:35:52;99353.63;;;10.11;74.80
28510;BME280;15723;55.684;37.928;2023-04-27T00:38:20;99354.50;;;10.11;75.14
28510;BME280;15723;55.684;37.928;2023-04-27T00:40:46;99357.31;;;10.10;75.34
28510;BME280;15723;55.684;37.928;2023-04-27T00:43:13;99358.63;;;10.29;74.98
28510;BME280;15723;55.684;37.928;2023-04-27T00:45:41;99355.47;;;10.23;74.90
28510;BME280;15723;55.684;37.928;2023-04-27T00:48:10;99359.03;;;9.98;75.18
28510;BME280;15723;55.684;37.928;2023-04-27T00:50:36;99358.72;;;10.28;74.67
28510;BME280;15723;55.684;37.928;2023-04-27T00:53:05;99359.03;;;10.36;74.25
28510;BME280;15723;55.684;37.928;2023-04-27T00:55:32;99353.53;;;10.25;74.71
28510;BME280;15723;55.684;37.928;2023-04-27T00:57:59;99343.09;;;10.19;75.00
28510;BME280;15723;55.684;37.928;2023-04-27T01:00:25;99345.16;;;10.02;75.79
28510;BME280;15723;55.684;37.928;2023-04-27T01:02:54;99346.34;;;9.98;76.65
28510;BME280;15723;55.684;37.928;2023-04-27T01:05:20;99349.38;;;10.19;76.43
28510;BME280;15723;55.684;37.928;2023-04-27T01:07:46;99348.50;;;10.19;76.46
28510;BME280;15723;55.684;37.928;2023-04-27T01:10:13;99356.09;;;10.39;75.54
28510;BME280;15723;55.684;37.928;2023-04-27T01:12:41;99347.66;;;10.31;75.89
28510;BME280;15723;55.684;37.928;2023-04-27T01:15:09;99348.94;;;10.38;75.18
28510;BME280;15723;55.684;37.928;2023-04-27T01:17:38;99343.84;;;10.33;74.88
28510;BME280;15723;55.684;37.928;2023-04-27T01:20:05;99350.38;;;10.31;74.91
28510;BME280;15723;55.684;37.928;2023-04-27T01:22:36;99345.69;;;10.33;74.43
28510;BME280;15723;55.684;37.928;2023-04-27T01:25:03;99353.72;;;10.34;74.88
28510;BME280;15723;55.684;37.928;2023-04-27T01:27:31;99360.25;;;10.32;75.18
28510;BME280;15723;55.684;37.928;2023-04-27T01:29:57;99357.44;;;10.21;75.74
28510;BME280;15723;55.684;37.928;2023-04-27T01:32:23;99360.56;;;10.27;76.31
28510;BME280;15723;55.684;37.928;2023-04-27T01:34:52;99355.78;;;10.18;76.64
28510;BME280;15723;55.684;37.928;2023-04-27T01:37:18;99362.63;;;10.11;76.56
28510;BME280;15723;55.684;37.928;2023-04-27T01:39:44;99357.19;;;10.11;76.39
28510;BME280;15723;55.684;37.928;2023-04-27T01:42:11;99363.69;;;9.70;78.92
28510;BME280;15723;55.684;37.928;2023-04-27T01:44:38;99368.69;;;9.89;77.89
28510;BME280;15723;55.684;37.928;2023-04-27T01:47:05;99357.94;;;10.00;77.14
28510;BME280;15723;55.684;37.928;2023-04-27T01:49:32;99365.31;;;9.98;76.77
28510;BME280;15723;55.684;37.928;2023-04-27T01:51:59;99370.84;;;9.97;76.53
28510;BME280;15723;55.684;37.928;2023-04-27T01:54:25;99364.47;;;10.11;77.25
28510;BME280;15723;55.684;37.928;2023-04-27T01:56:51;99363.50;;;10.24;76.53
28510;BME280;15723;55.684;37.928;2023-04-27T01:59:18;99368.69;;;10.15;76.80
28510;BME280;15723;55.684;37.928;2023-04-27T02:01:44;99373.91;;;10.05;77.41
28510;BME280;15723;55.684;37.928;2023-04-27T02:04:10;99368.56;;;9.91;78.04
28510;BME280;15723;55.684;37.928;2023-04-27T02:06:37;99376.16;;;9.73;79.11
28510;BME280;15723;55.684;37.928;2023-04-27T02:09:05;99374.94;;;9.64;79.38
28510;BME280;15723;55.684;37.928;2023-04-27T02:11:32;99382.28;;;9.62;79.61
28510;BME280;15723;55.684;37.928;2023-04-27T02:13:58;99384.13;;;9.62;79.26
28510;BME280;15723;55.684;37.928;2023-04-27T02:16:49;99380.81;;;9.84;78.56
28510;BME280;15723;55.684;37.928;2023-04-27T02:19:15;99381.03;;;9.93;77.88
28510;BME280;15723;55.684;37.928;2023-04-27T02:21:43;99386.38;;;10.08;76.99
28510;BME280;15723;55.684;37.928;2023-04-27T02:24:10;99389.09;;;10.08;76.63
28510;BME280;15723;55.684;37.928;2023-04-27T02:26:37;99388.47;;;10.29;76.08
28510;BME280;15723;55.684;37.928;2023-04-27T02:29:03;99398.81;;;9.97;76.84
28510;BME280;15723;55.684;37.928;2023-04-27T02:31:29;99402.53;;;9.96;77.75
28510;BME280;15723;55.684;37.928;2023-04-27T02:33:56;99401.47;;;10.12;77.57
28510;BME280;15723;55.684;37.928;2023-04-27T02:36:25;99404.94;;;10.14;78.24
28510;BME280;15723;55.684;37.928;2023-04-27T02:38:54;99400.31;;;10.41;77.84
28510;BME280;15723;55.684;37.928;2023-04-27T02:41:20;99406.59;;;11.27;75.70
28510;BME280;15723;55.684;37.928;2023-04-27T02:43:49;99402.72;;;12.13;73.40
28510;BME280;15723;55.684;37.928;2023-04-27T02:46:16;99408.31;;;12.90;70.69
28510;BME280;15723;55.684;37.928;2023-04-27T02:48:42;99409.94;;;12.92;70.15
28510;BME280;15723;55.684;37.928;2023-04-27T02:51:08;99405.72;;;12.88;69.68
28510;BME280;15723;55.684;37.928;2023-04-27T02:53:35;99417.47;;;13.22;67.91
28510;BME280;15723;55.684;37.928;2023-04-27T02:56:01;99419.91;;;14.21;65.40
28510;BME280;15723;55.684;37.928;2023-04-27T02:58:27;99420.91;;;14.92;62.86
28510;BME280;15723;55.684;37.928;2023-04-27T03:00:54;99416.03;;;14.96;62.29
28510;BME280;15723;55.684;37.928;2023-04-27T03:03:22;99416.94;;;15.66;60.51
28510;BME280;15723;55.684;37.928;2023-04-27T03:05:48;99421.53;;;15.84;59.62
28510;BME280;15723;55.684;37.928;2023-04-27T03:08:15;99418.78;;;16.13;58.75
28510;BME280;15723;55.684;37.928;2023-04-27T03:10:41;99417.66;;;15.87;58.84
28510;BME280;15723;55.684;37.928;2023-04-27T03:13:08;99418.63;;;16.24;58.75
28510;BME280;15723;55.684;37.928;2023-04-27T03:15:35;99419.75;;;16.51;56.23
28510;BME280;15723;55.684;37.928;2023-04-27T03:18:01;99430.28;;;16.46;56.58
28510;BME280;15723;55.684;37.928;2023-04-27T03:20:27;99425.88;;;17.09;55.62
28510;BME280;15723;55.684;37.928;2023-04-27T03:22:53;99429.19;;;18.03;52.32
28510;BME280;15723;55.684;37.928;2023-04-27T03:25:20;99427.56;;;19.06;50.47
28510;BME280;15723;55.684;37.928;2023-04-27T03:27:46;99422.91;;;19.49;49.68
28510;BME280;15723;55.684;37.928;2023-04-27T03:30:13;99426.38;;;17.95;52.75
28510;BME280;15723;55.684;37.928;2023-04-27T03:32:39;99432.44;;;19.28;50.63
28510;BME280;15723;55.684;37.928;2023-04-27T03:35:06;99433.53;;;19.86;49.09
28510;BME280;15723;55.684;37.928;2023-04-27T03:37:32;99440.94;;;19.93;48.69
28510;BME280;15723;55.684;37.928;2023-04-27T03:39:59;99432.81;;;20.98;45.70
28510;BME280;15723;55.684;37.928;2023-04-27T03:42:25;99441.97;;;19.92;47.18
28510;BME280;15723;55.684;37.928;2023-04-27T03:44:52;99441.59;;;21.01;45.35
28510;BME280;15723;55.684;37.928;2023-04-27T03:47:18;99445.31;;;21.16;45.41
28510;BME280;15723;55.684;37.928;2023-04-27T03:49:46;99450.03;;;21.08;45.43
28510;BME280;15723;55.684;37.928;2023-04-27T03:52:12;99443.53;;;20.36;45.04
28510;BME280;15723;55.684;37.928;2023-04-27T03:54:39;99452.63;;;21.01;43.16
28510;BME280;15723;55.684;37.928;2023-04-27T03:57:05;99446.78;;;21.51;43.04
28510;BME280;15723;55.684;37.928;2023-04-27T03:59:31;99449.31;;;22.23;41.71
28510;BME280;15723;55.684;37.928;2023-04-27T04:01:57;99442.91;;;21.92;42.03
28510;BME280;15723;55.684;37.928;2023-04-27T04:04:24;99446.28;;;20.92;42.97
28510;BME280;15723;55.684;37.928;2023-04-27T04:06:50;99446.53;;;21.30;43.09
28510;BME280;15723;55.684;37.928;2023-04-27T04:09:16;99444.31;;;21.26;43.29
28510;BME280;15723;55.684;37.928;2023-04-27T04:11:43;99448.00;;;21.49;42.20
28510;BME280;15723;55.684;37.928;2023-04-27T04:14:15;99454.09;;;21.75;42.37
28510;BME280;15723;55.684;37.928;2023-04-27T04:16:41;99445.00;;;21.90;41.90
28510;BME280;15723;55.684;37.928;2023-04-27T04:19:07;99442.44;;;21.88;41.95
28510;BME280;15723;55.684;37.928;2023-04-27T04:21:34;99448.63;;;22.21;41.86
28510;BME280;15723;55.684;37.928;2023-04-27T04:24:01;99439.28;;;23.86;38.68
28510;BME280;15723;55.684;37.928;2023-04-27T04:26:27;99444.75;;;24.58;37.09
28510;BME280;15723;55.684;37.928;2023-04-27T04:28:54;99439.75;;;25.31;34.96
28510;BME280;15723;55.684;37.928;2023-04-27T04:31:20;99447.59;;;25.62;34.64
28510;BME280;15723;55.684;37.928;2023-04-27T04:33:48;99437.66;;;26.61;32.15
28510;BME280;15723;55.684;37.928;2023-04-27T04:36:15;99444.19;;;27.59;31.00
28510;BME280;15723;55.684;37.928;2023-04-27T04:38:41;99457.13;;;26.48;33.17
28510;BME280;15723;55.684;37.928;2023-04-27T04:41:07;99442.34;;;27.27;32.42
28510;BME280;15723;55.684;37.928;2023-04-27T04:43:43;99438.53;;;28.30;30.54
28510;BME280;15723;55.684;37.928;2023-04-27T04:46:09;99445.59;;;29.14;29.93
28510;BME280;15723;55.684;37.928;2023-04-27T04:48:36;99450.03;;;28.41;29.89
28510;BME280;15723;55.684;37.928;2023-04-27T04:51:04;99448.53;;;30.29;27.96
28510;BME280;15723;55.684;37.928;2023-04-27T04:53:32;99447.97;;;30.09;27.42
28510;BME280;15723;55.684;37.928;2023-04-27T04:56:10;99454.13;;;29.01;27.89
28510;BME280;15723;55.684;37.928;2023-04-27T04:58:37;99462.22;;;29.27;27.76
28510;BME280;15723;55.684;37.928;2023-04-27T05:01:04;99450.47;;;31.47;25.63
28510;BME280;15723;55.684;37.928;2023-04-27T05:03:31;99453.69;;;32.31;25.08
28510;BME280;15723;55.684;37.928;2023-04-27T05:05:57;99449.97;;;31.74;24.72
28510;BME280;15723;55.684;37.928;2023-04-27T05:08:24;99456.66;;;32.53;24.14
28510;BME280;15723;55.684;37.928;2023-04-27T05:10:51;99458.59;;;31.14;24.51
28510;BME280;15723;55.684;37.928;2023-04-27T05:13:18;99454.03;;;32.63;23.92
28510;BME280;15723;55.684;37.928;2023-04-27T05:15:44;99456.19;;;31.17;25.17
28510;BME280;15723;55.684;37.928;2023-04-27T05:18:11;99449.69;;;32.27;24.20
28510;BME280;15723;55.684;37.928;2023-04-27T05:20:37;99457.84;;;30.83;24.17
28510;BME280;15723;55.684;37.928;2023-04-27T05:23:04;99446.09;;;32.60;23.08
28510;BME280;15723;55.684;37.928;2023-04-27T05:25:31;99450.16;;;32.24;22.87
28510;BME280;15723;55.684;37.928;2023-04-27T05:27:58;99456.28;;;30.99;24.34
28510;BME280;15723;55.684;37.928;2023-04-27T05:30:24;99452.50;;;31.87;23.33
28510;BME280;15723;55.684;37.928;2023-04-27T05:32:50;99460.41;;;32.87;22.26
28510;BME280;15723;55.684;37.928;2023-04-27T05:35:17;99456.44;;;33.77;21.41
28510;BME280;15723;55.684;37.928;2023-04-27T05:37:43;99454.44;;;33.34;21.52
28510;BME280;15723;55.684;37.928;2023-04-27T05:40:09;99456.13;;;32.84;21.62
28510;BME280;15723;55.684;37.928;2023-04-27T05:42:36;99448.91;;;34.75;20.59
28510;BME280;15723;55.684;37.928;2023-04-27T05:45:02;99449.03;;;35.59;19.81
28510;BME280;15723;55.684;37.928;2023-04-27T05:47:29;99452.31;;;35.36;19.61
28510;BME280;15723;55.684;37.928;2023-04-27T05:49:55;99452.03;;;34.78;20.05
28510;BME280;15723;55.684;37.928;2023-04-27T05:52:22;99451.81;;;32.48;22.29
28510;BME280;15723;55.684;37.928;2023-04-27T05:54:54;99447.78;;;34.00;20.53
28510;BME280;15723;55.684;37.928;2023-04-27T05:57:20;99451.16;;;35.00;19.68
28510;BME280;15723;55.684;37.928;2023-04-27T05:59:47;99443.41;;;34.58;19.82
28510;BME280;15723;55.684;37.928;2023-04-27T06:02:13;99449.34;;;34.89;20.11
28510;BME280;15723;55.684;37.928;2023-04-27T06:04:39;99444.75;;;35.47;18.99
28510;BME280;15723;55.684;37.928;2023-04-27T06:07:09;99441.72;;;36.16;18.61
28510;BME280;15723;55.684;37.928;2023-04-27T06:09:37;99450.53;;;34.66;19.00
28510;BME280;15723;55.684;37.928;2023-04-27T06:12:05;99444.53;;;35.58;18.65
28510;BME280;15723;55.684;37.928;2023-04-27T06:14:32;99454.91;;;35.10;19.65
28510;BME280;15723;55.684;37.928;2023-04-27T06:16:59;99451.03;;;35.64;18.79
28510;BME280;15723;55.684;37.928;2023-04-27T06:19:25;99456.56;;;34.26;20.13
28510;BME280;15723;55.684;37.928;2023-04-27T06:21:55;99441.34;;;35.45;19.60
28510;BME280;15723;55.684;37.928;2023-04-27T06:24:21;99455.38;;;34.97;19.30
28510;BME280;15723;55.684;37.928;2023-04-27T06:26:48;99453.09;;;35.31;18.63
28510;BME280;15723;55.684;37.928;2023-04-27T06:29:14;99456.13;;;33.51;20.48
28510;BME280;15723;55.684;37.928;2023-04-27T06:31:41;99460.50;;;34.25;19.15
28510;BME280;15723;55.684;37.928;2023-04-27T06:34:07;99460.38;;;33.76;19.67
28510;BME280;15723;55.684;37.928;2023-04-27T06:36:33;99461.69;;;33.46;19.67
28510;BME280;15723;55.684;37.928;2023-04-27T06:39:00;99466.66;;;33.61;20.69
28510;BME280;15723;55.684;37.928;2023-04-27T06:41:27;99462.19;;;34.04;20.16
28510;BME280;15723;55.684;37.928;2023-04-27T06:43:53;99470.25;;;32.44;20.27
28510;BME280;15723;55.684;37.928;2023-04-27T06:46:22;99469.53;;;33.66;19.74
28510;BME280;15723;55.684;37.928;2023-04-27T06:48:48;99464.38;;;33.41;20.48
28510;BME280;15723;55.684;37.928;2023-04-27T06:51:14;99480.94;;;31.20;21.41
28510;BME280;15723;55.684;37.928;2023-04-27T06:53:41;99472.59;;;31.95;21.90
28510;BME280;15723;55.684;37.928;2023-04-27T06:56:09;99477.59;;;33.58;19.76
28510;BME280;15723;55.684;37.928;2023-04-27T06:58:36;99482.03;;;31.66;21.77
28510;BME280;15723;55.684;37.928;2023-04-27T07:01:03;99465.84;;;33.27;20.12
28510;BME280;15723;55.684;37.928;2023-04-27T07:03:33;99468.41;;;33.12;19.67
28510;BME280;15723;55.684;37.928;2023-04-27T07:06:00;99468.50;;;34.87;18.45
28510;BME280;15723;55.684;37.928;2023-04-27T07:08:26;99459.63;;;35.00;18.66
28510;BME280;15723;55.684;37.928;2023-04-27T07:10:52;99463.50;;;35.31;18.25
28510;BME280;15723;55.684;37.928;2023-04-27T07:13:19;99466.91;;;34.96;18.33
28510;BME280;15723;55.684;37.928;2023-04-27T07:15:46;99457.84;;;35.31;18.38
28510;BME280;15723;55.684;37.928;2023-04-27T07:18:12;99463.31;;;34.78;18.40
28510;BME280;15723;55.684;37.928;2023-04-27T07:20:39;99470.88;;;34.73;18.32
28510;BME280;15723;55.684;37.928;2023-04-27T07:23:09;99465.63;;;36.76;16.49
28510;BME280;15723;55.684;37.928;2023-04-27T07:25:35;99462.66;;;35.30;18.41
28510;BME280;15723;55.684;37.928;2023-04-27T07:28:02;99464.94;;;35.70;17.75
28510;BME280;15723;55.684;37.928;2023-04-27T07:30:29;99469.31;;;35.93;17.73
28510;BME280;15723;55.684;37.928;2023-04-27T07:32:55;99463.06;;;36.54;18.00
28510;BME280;15723;55.684;37.928;2023-04-27T07:35:22;99468.44;;;36.66;17.74
28510;BME280;15723;55.684;37.928;2023-04-27T07:37:48;99471.56;;;33.32;20.67
28510;BME280;15723;55.684;37.928;2023-04-27T07:40:14;99472.94;;;34.83;18.56
28510;BME280;15723;55.684;37.928;2023-04-27T07:42:45;99482.69;;;34.70;19.27
28510;BME280;15723;55.684;37.928;2023-04-27T07:45:15;99480.41;;;35.31;17.62
28510;BME280;15723;55.684;37.928;2023-04-27T07:47:44;99485.28;;;33.12;20.11
28510;BME280;15723;55.684;37.928;2023-04-27T07:50:11;99481.50;;;33.06;20.10
28510;BME280;15723;55.684;37.928;2023-04-27T07:52:43;99468.09;;;33.64;20.04
28510;BME280;15723;55.684;37.928;2023-04-27T07:55:09;99477.34;;;35.32;18.01
28510;BME280;15723;55.684;37.928;2023-04-27T07:57:36;99473.34;;;35.65;17.56
28510;BME280;15723;55.684;37.928;2023-04-27T08:00:02;99483.41;;;35.46;18.02
28510;BME280;15723;55.684;37.928;2023-04-27T08:02:39;99489.28;;;35.07;18.36
28510;BME280;15723;55.684;37.928;2023-04-27T08:05:05;99480.84;;;35.82;17.46
28510;BME280;15723;55.684;37.928;2023-04-27T08:07:33;99481.38;;;35.36;18.00
28510;BME280;15723;55.684;37.928;2023-04-27T08:09:59;99478.06;;;34.86;18.22
28510;BME280;15723;55.684;37.928;2023-04-27T08:12:26;99471.63;;;33.54;19.58
28510;BME280;15723;55.684;37.928;2023-04-27T08:14:52;99472.16;;;32.27;19.91
28510;BME280;15723;55.684;37.928;2023-04-27T08:17:18;99465.09;;;31.49;20.92
28510;BME280;15723;55.684;37.928;2023-04-27T08:19:46;99461.31;;;28.84;24.05
28510;BME280;15723;55.684;37.928;2023-04-27T08:22:13;99470.25;;;28.68;24.98
28510;BME280;15723;55.684;37.928;2023-04-27T08:24:39;99468.34;;;28.93;24.64
28510;BME280;15723;55.684;37.928;2023-04-27T08:27:06;99469.69;;;28.27;24.85
28510;BME280;15723;55.684;37.928;2023-04-27T08:29:32;99460.69;;;27.61;25.95
28510;BME280;15723;55.684;37.928;2023-04-27T08:32:01;99466.53;;;27.39;26.49
28510;BME280;15723;55.684;37.928;2023-04-27T08:34:28;99474.72;;;27.01;27.40
28510;BME280;15723;55.684;37.928;2023-04-27T08:36:54;99478.94;;;25.77;27.77
28510;BME280;15723;55.684;37.928;2023-04-27T08:39:22;99468.06;;;25.47;29.19
28510;BME280;15723;55.684;37.928;2023-04-27T08:41:49;99469.09;;;25.40;29.65
28510;BME280;15723;55.684;37.928;2023-04-27T08:44:15;99468.69;;;25.84;27.65
28510;BME280;15723;55.684;37.928;2023-04-27T08:46:41;99466.91;;;25.01;29.74
28510;BME280;15723;55.684;37.928;2023-04-27T08:49:07;99469.19;;;24.97;29.92
28510;BME280;15723;55.684;37.928;2023-04-27T08:51:35;99477.16;;;25.00;30.12
28510;BME280;15723;55.684;37.928;2023-04-27T08:54:01;99472.72;;;25.40;28.97
28510;BME280;15723;55.684;37.928;2023-04-27T08:56:28;99482.38;;;25.85;28.79
28510;BME280;15723;55.684;37.928;2023-04-27T08:58:56;99478.72;;;25.78;29.47
28510;BME280;15723;55.684;37.928;2023-04-27T09:01:24;99474.19;;;25.71;28.86
28510;BME280;15723;55.684;37.928;2023-04-27T09:03:59;99477.03;;;25.84;28.44
28510;BME280;15723;55.684;37.928;2023-04-27T09:06:32;99477.91;;;25.98;28.33
28510;BME280;15723;55.684;37.928;2023-04-27T09:08:59;99481.22;;;26.14;28.18
28510;BME280;15723;55.684;37.928;2023-04-27T09:11:32;99488.25;;;26.04;28.88
28510;BME280;15723;55.684;37.928;2023-04-27T09:14:14;99471.06;;;25.87;28.28
28510;BME280;15723;55.684;37.928;2023-04-27T09:16:42;99468.97;;;25.61;28.82
28510;BME280;15723;55.684;37.928;2023-04-27T09:19:09;99463.78;;;25.51;29.29
28510;BME280;15723;55.684;37.928;2023-04-27T09:21:36;99464.25;;;25.20;29.88
28510;BME280;15723;55.684;37.928;2023-04-27T09:24:10;99474.00;;;24.88;30.12
28510;BME280;15723;55.684;37.928;2023-04-27T09:26:38;99474.56;;;24.99;30.06
28510;BME280;15723;55.684;37.928;2023-04-27T09:29:04;99473.31;;;25.01;29.65
28510;BME280;15723;55.684;37.928;2023-04-27T09:31:32;99465.22;;;25.34;29.80
28510;BME280;15723;55.684;37.928;2023-04-27T09:33:59;99460.81;;;24.90;30.60
28510;BME280;15723;55.684;37.928;2023-04-27T09:36:25;99471.94;;;25.18;30.68
28510;BME280;15723;55.684;37.928;2023-04-27T09:38:52;99479.75;;;25.08;30.91
28510;BME280;15723;55.684;37.928;2023-04-27T09:41:19;99476.22;;;24.93;30.17
28510;BME280;15723;55.684;37.928;2023-04-27T09:43:46;99474.00;;;24.88;30.53
28510;BME280;15723;55.684;37.928;2023-04-27T09:46:13;99465.72;;;25.16;30.16
28510;BME280;15723;55.684;37.928;2023-04-27T09:48:41;99466.25;;;24.77;31.97
28510;BME280;15723;55.684;37.928;2023-04-27T09:51:08;99476.72;;;24.54;32.47
28510;BME280;15723;55.684;37.928;2023-04-27T09:54:00;99472.91;;;24.55;32.32
28510;BME280;15723;55.684;37.928;2023-04-27T09:57:04;99483.66;;;24.65;31.75
28510;BME280;15723;55.684;37.928;2023-04-27T10:02:10;99474.47;;;24.43;30.90
28510;BME280;15723;55.684;37.928;2023-04-27T10:07:19;99462.31;;;24.44;31.79
28510;BME280;15723;55.684;37.928;2023-04-27T10:09:47;99463.84;;;24.10;32.53
28510;BME280;15723;55.684;37.928;2023-04-27T10:12:25;99465.53;;;24.26;31.57
28510;BME280;15723;55.684;37.928;2023-04-27T10:14:56;99461.78;;;24.34;32.26
28510;BME280;15723;55.684;37.928;2023-04-27T10:17:31;99476.44;;;24.27;31.66
28510;BME280;15723;55.684;37.928;2023-04-27T10:20:06;99474.97;;;24.53;30.80
28510;BME280;15723;55.684;37.928;2023-04-27T10:22:47;99478.66;;;24.53;30.87
28510;BME280;15723;55.684;37.928;2023-04-27T10:25:20;99470.31;;;24.53;30.06
28510;BME280;15723;55.684;37.928;2023-04-27T10:27:52;99473.84;;;24.26;30.69
28510;BME280;15723;55.684;37.928;2023-04-27T10:30:22;99473.28;;;24.16;31.39
28510;BME280;15723;55.684;37.928;2023-04-27T10:32:54;99464.28;;;24.50;31.36
28510;BME280;15723;55.684;37.928;2023-04-27T10:35:31;99466.88;;;23.94;31.46
28510;BME280;15723;55.684;37.928;2023-04-27T10:38:10;99468.47;;;24.03;32.44
28510;BME280;15723;55.684;37.928;2023-04-27T10:40:39;99462.03;;;24.17;31.60
28510;BME280;15723;55.684;37.928;2023-04-27T10:43:16;99470.59;;;24.22;30.86
28510;BME280;15723;55.684;37.928;2023-04-27T10:45:43;99458.69;;;24.65;30.12
28510;BME280;15723;55.684;37.928;2023-04-27T10:48:13;99463.38;;;24.64;30.27
28510;BME280;15723;55.684;37.928;2023-04-27T10:50:43;99456.75;;;24.65;30.49
28510;BME280;15723;55.684;37.928;2023-04-27T10:53:13;99472.63;;;24.14;30.56
28510;BME280;15723;55.684;37.928;2023-04-27T10:55:40;99473.78;;;23.83;30.43
28510;BME280;15723;55.684;37.928;2023-04-27T10:58:06;99478.34;;;23.91;30.92
28510;BME280;15723;55.684;37.928;2023-04-27T11:00:35;99472.06;;;23.67;30.67
28510;BME280;15723;55.684;37.928;2023-04-27T11:03:20;99484.22;;;23.66;31.01
28510;BME280;15723;55.684;37.928;2023-04-27T11:05:48;99491.56;;;23.45;31.64
28510;BME280;15723;55.684;37.928;2023-04-27T11:08:18;99499.50;;;22.81;33.76
28510;BME280;15723;55.684;37.928;2023-04-27T11:10:47;99501.84;;;22.69;34.15
28510;BME280;15723;55.684;37.928;2023-04-27T11:13:17;99501.88;;;22.61;35.03
28510;BME280;15723;55.684;37.928;2023-04-27T11:18:28;99515.13;;;21.89;36.97
28510;BME280;15723;55.684;37.928;2023-04-27T11:21:25;99526.03;;;21.43;37.53
28510;BME280;15723;55.684;37.928;2023-04-27T11:23:52;99531.59;;;21.02;38.65
28510;BME280;15723;55.684;37.928;2023-04-27T11:26:21;99524.03;;;20.96;39.41
28510;BME280;15723;55.684;37.928;2023-04-27T11:29:03;99532.81;;;20.75;40.62
28510;BME280;15723;55.684;37.928;2023-04-27T11:31:41;99544.03;;;20.49;45.25
28510;BME280;15723;55.684;37.928;2023-04-27T11:34:09;99551.19;;;20.18;46.86
28510;BME280;15723;55.684;37.928;2023-04-27T11:36:40;99553.09;;;20.25;47.65
28510;BME280;15723;55.684;37.928;2023-04-27T11:39:06;99558.00;;;20.64;48.88
28510;BME280;15723;55.684;37.928;2023-04-27T11:41:35;99558.53;;;20.84;47.01
28510;BME280;15723;55.684;37.928;2023-04-27T11:44:09;99548.94;;;21.51;47.41
28510;BME280;15723;55.684;37.928;2023-04-27T11:46:36;99540.72;;;21.82;46.63
28510;BME280;15723;55.684;37.928;2023-04-27T11:49:03;99550.59;;;22.16;45.88
28510;BME280;15723;55.684;37.928;2023-04-27T11:51:33;99543.47;;;22.22;44.69
28510;BME280;15723;55.684;37.928;2023-04-27T11:54:06;99533.91;;;22.32;44.70
28510;BME280;15723;55.684;37.928;2023-04-27T11:56:34;99529.06;;;22.34;43.75
28510;BME280;15723;55.684;37.928;2023-04-27T11:59:01;99524.78;;;22.32;43.86
28510;BME280;15723;55.684;37.928;2023-04-27T12:01:30;99530.22;;;22.40;42.12
28510;BME280;15723;55.684;37.928;2023-04-27T12:03:56;99530.84;;;21.88;43.02
28510;BME280;15723;55.684;37.928;2023-04-27T12:06:27;99522.59;;;21.80;42.63
28510;BME280;15723;55.684;37.928;2023-04-27T12:08:55;99527.53;;;21.53;41.96
28510;BME280;15723;55.684;37.928;2023-04-27T12:11:25;99520.47;;;21.90;41.07
28510;BME280;15723;55.684;37.928;2023-04-27T12:13:55;99521.16;;;21.53;44.08
28510;BME280;15723;55.684;37.928;2023-04-27T12:16:22;99512.94;;;21.37;43.24
28510;BME280;15723;55.684;37.928;2023-04-27T12:18:51;99519.31;;;21.37;43.86
28510;BME280;15723;55.684;37.928;2023-04-27T12:21:17;99509.06;;;21.54;42.43
28510;BME280;15723;55.684;37.928;2023-04-27T12:23:44;99510.31;;;21.43;43.43
28510;BME280;15723;55.684;37.928;2023-04-27T12:26:10;99523.63;;;21.40;42.94
28510;BME280;15723;55.684;37.928;2023-04-27T12:28:37;99511.66;;;21.56;42.30
28510;BME280;15723;55.684;37.928;2023-04-27T12:31:04;99501.09;;;21.67;42.00
28510;BME280;15723;55.684;37.928;2023-04-27T12:33:30;99511.50;;;21.57;42.21
28510;BME280;15723;55.684;37.928;2023-04-27T12:35:57;99498.19;;;21.52;41.17
28510;BME280;15723;55.684;37.928;2023-04-27T12:38:23;99502.84;;;21.52;41.62
28510;BME280;15723;55.684;37.928;2023-04-27T12:40:49;99502.50;;;21.63;41.11
28510;BME280;15723;55.684;37.928;2023-04-27T12:43:16;99508.34;;;21.68;38.86
28510;BME280;15723;55.684;37.928;2023-04-27T12:45:42;99499.69;;;21.71;38.62
28510;BME280;15723;55.684;37.928;2023-04-27T12:48:08;99504.25;;;21.87;38.54
28510;BME280;15723;55.684;37.928;2023-04-27T12:50:36;99503.44;;;21.78;38.88
28510;BME280;15723;55.684;37.928;2023-04-27T12:53:02;99504.47;;;21.77;39.11
28510;BME280;15723;55.684;37.928;2023-04-27T12:55:29;99495.44;;;21.61;40.24
28510;BME280;15723;55.684;37.928;2023-04-27T12:57:55;99503.88;;;21.59;37.74
28510;BME280;15723;55.684;37.928;2023-04-27T13:00:26;99496.28;;;21.61;38.25
28510;BME280;15723;55.684;37.928;2023-04-27T13:02:52;99495.84;;;21.41;37.06